Time;durP1;ratioP1;P1;durP2;ratioP2;P2;SDS_P1;SDS_P2;PMS_P1;PMS_P2;Temp;Humidity;BMP_temperature;BMP_pressure;BME280_temperature;BME280_humidity;BME280_pressure;Samples;Min_cycle;Max_cycle;Signal;HPM_P1;HPM_P2
2021/05/31 00:00:49;;;;;;;222.67;206.10;;;;;;;17.76;100.00;101148.31;5071989;28;20172;-76
2021/05/31 00:03:14;;;;;;;261.73;242.80;;;;;;;17.74;100.00;101150.25;5072566;28;20188;-77
2021/05/31 00:05:40;;;;;;;202.00;186.97;;;;;;;17.65;100.00;101148.41;5072635;28;20158;-77
2021/05/31 00:08:05;;;;;;;238.20;220.90;;;;;;;17.55;100.00;101145.75;5072463;28;20176;-76
2021/05/31 00:10:31;;;;;;;235.00;218.23;;;;;;;17.54;100.00;101153.84;5071193;28;20161;-78
2021/05/31 00:12:57;;;;;;;242.37;225.07;;;;;;;17.53;100.00;101150.34;5071499;28;20198;-77
2021/05/31 00:15:22;;;;;;;291.27;269.77;;;;;;;17.49;100.00;101151.59;5072445;28;20193;-76
2021/05/31 00:17:48;;;;;;;249.33;230.87;;;;;;;17.47;100.00;101161.53;5072722;28;20553;-77
2021/05/31 00:20:16;;;;;;;308.33;283.13;;;;;;;17.45;100.00;101155.50;5065818;28;20162;-77
2021/05/31 00:22:42;;;;;;;282.00;257.33;;;;;;;17.35;100.00;101160.78;5066245;28;20768;-77
2021/05/31 00:25:09;;;;;;;307.00;283.93;;;;;;;17.31;100.00;101151.44;5072008;28;20923;-75
2021/05/31 00:27:36;;;;;;;348.73;324.30;;;;;;;17.36;100.00;101153.66;5072653;28;20548;-76
2021/05/31 00:30:03;;;;;;;366.57;334.30;;;;;;;17.40;100.00;101157.75;5071808;28;20498;-77
2021/05/31 00:32:28;;;;;;;298.70;275.83;;;;;;;17.34;100.00;101153.81;5071551;28;20454;-78
2021/05/31 00:34:54;;;;;;;328.90;305.33;;;;;;;17.30;100.00;101155.03;5070822;28;20486;-78
2021/05/31 00:37:19;;;;;;;312.83;290.40;;;;;;;17.25;100.00;101159.94;5071801;28;20169;-77
2021/05/31 00:39:45;;;;;;;240.57;222.23;;;;;;;17.23;100.00;101151.28;5071386;28;20168;-78
2021/05/31 00:42:10;;;;;;;319.80;296.90;;;;;;;17.24;100.00;101155.59;5071903;28;20161;-77
2021/05/31 00:44:37;;;;;;;233.87;216.43;;;;;;;17.23;100.00;101147.75;5071561;28;20176;-77
2021/05/31 00:47:04;;;;;;;291.73;270.67;;;;;;;17.26;100.00;101147.50;5071623;28;20165;-78
2021/05/31 00:49:35;;;;;;;261.40;241.27;;;;;;;17.27;100.00;101146.50;5071920;28;20391;-77
2021/05/31 00:52:03;;;;;;;210.73;194.40;;;;;;;17.24;100.00;101152.94;5071501;28;20410;-77
2021/05/31 00:54:29;;;;;;;308.83;287.13;;;;;;;17.23;100.00;101153.94;5071501;28;20508;-75
2021/05/31 00:56:55;;;;;;;240.00;221.73;;;;;;;17.17;100.00;101155.31;5071328;28;20415;-78
2021/05/31 00:59:21;;;;;;;261.27;242.30;;;;;;;17.20;100.00;101154.19;5071543;28;20157;-77
2021/05/31 01:01:48;;;;;;;219.30;203.30;;;;;;;17.18;100.00;101159.63;5071307;28;20425;-78
2021/05/31 01:04:14;;;;;;;359.33;330.80;;;;;;;17.18;100.00;101156.13;5072229;28;20638;-78
2021/05/31 01:06:48;;;;;;;220.63;204.63;;;;;;;17.13;100.00;101150.38;5071369;28;20518;-77
2021/05/31 01:09:18;;;;;;;244.60;226.30;;;;;;;17.08;100.00;101157.94;5071823;28;20401;-76
2021/05/31 01:11:43;;;;;;;350.73;323.30;;;;;;;17.07;100.00;101149.09;5071410;28;20432;-77
2021/05/31 01:14:16;;;;;;;195.30;180.30;;;;;;;17.08;100.00;101148.16;5071322;28;20450;-75
2021/05/31 01:17:03;;;;;;;284.97;263.93;;;;;;;17.05;100.00;101150.22;5071545;28;20242;-76
2021/05/31 01:19:50;;;;;;;292.07;269.10;;;;;;;17.10;100.00;101145.34;5071123;28;20422;-76
2021/05/31 01:22:20;;;;;;;411.83;370.33;;;;;;;17.08;100.00;101145.50;5053887;28;20406;-77
2021/05/31 01:25:04;;;;;;;266.27;247.10;;;;;;;17.05;100.00;101144.91;5070989;28;20445;-77
2021/05/31 01:27:41;;;;;;;361.73;335.17;;;;;;;17.05;100.00;101143.09;5071907;28;20418;-77
2021/05/31 01:30:15;;;;;;;286.03;264.83;;;;;;;17.09;100.00;101136.56;5061157;28;20464;-77
2021/05/31 01:32:47;;;;;;;230.43;213.93;;;;;;;17.08;100.00;101142.84;5070807;28;20442;-77
2021/05/31 01:35:23;;;;;;;193.93;179.27;;;;;;;17.04;100.00;101136.09;5071250;28;20776;-77
2021/05/31 01:37:49;;;;;;;398.20;369.47;;;;;;;17.11;100.00;101133.75;5071197;28;20399;-77
2021/05/31 01:40:15;;;;;;;372.57;345.87;;;;;;;17.08;100.00;101131.38;5070787;28;20454;-76
2021/05/31 01:42:41;;;;;;;336.47;303.00;;;;;;;17.08;100.00;101131.38;5070868;28;20478;-76
2021/05/31 01:45:10;;;;;;;324.17;299.33;;;;;;;17.05;100.00;101137.78;5070965;28;20422;-74
2021/05/31 01:47:36;;;;;;;224.97;208.57;;;;;;;17.03;100.00;101138.91;5071169;28;20426;-77
2021/05/31 01:50:03;;;;;;;354.20;327.87;;;;;;;16.99;100.00;101124.19;5070245;28;20482;-74
2021/05/31 01:52:30;;;;;;;310.80;285.90;;;;;;;16.96;100.00;101130.63;5071079;28;20429;-76
2021/05/31 01:54:57;;;;;;;501.57;463.13;;;;;;;16.96;100.00;101127.97;5071035;28;20391;-76
2021/05/31 01:57:23;;;;;;;213.87;197.97;;;;;;;16.94;100.00;101137.88;5070811;28;20688;-76
2021/05/31 01:59:50;;;;;;;374.63;344.23;;;;;;;16.98;100.00;101130.47;5065924;28;20825;-76
2021/05/31 02:02:17;;;;;;;462.57;428.87;;;;;;;16.90;100.00;101121.38;5055562;28;20407;-77
2021/05/31 02:04:43;;;;;;;468.60;430.60;;;;;;;16.88;100.00;101126.00;5070538;28;20448;-75
2021/05/31 02:07:09;;;;;;;236.77;219.03;;;;;;;16.82;100.00;101120.38;5070239;28;20472;-75
2021/05/31 02:09:34;;;;;;;429.77;394.37;;;;;;;16.80;100.00;101115.19;5070473;28;20572;-77
2021/05/31 02:12:04;;;;;;;533.93;493.63;;;;;;;16.80;100.00;101119.66;5070752;28;20157;-75
2021/05/31 02:14:54;;;;;;;394.03;365.23;;;;;;;16.81;100.00;101119.53;5070378;28;20670;-76
2021/05/31 02:17:28;;;;;;;277.97;256.53;;;;;;;16.78;100.00;101111.00;5068724;28;20426;-77
2021/05/31 02:19:59;;;;;;;282.17;262.50;;;;;;;16.79;100.00;101110.88;5070699;28;20511;-77
2021/05/31 02:22:25;;;;;;;446.50;413.87;;;;;;;16.74;100.00;101105.13;5070949;28;20399;-77
2021/05/31 02:24:54;;;;;;;289.00;268.90;;;;;;;16.75;100.00;101108.59;5070236;28;20403;-77
2021/05/31 02:27:21;;;;;;;280.93;260.30;;;;;;;16.71;100.00;101102.75;5069994;28;20427;-76
2021/05/31 02:29:47;;;;;;;528.57;486.47;;;;;;;16.72;100.00;101108.88;5069045;28;20407;-76
2021/05/31 02:32:13;;;;;;;342.30;317.80;;;;;;;16.74;100.00;101106.94;5070482;28;20411;-76
2021/05/31 02:34:38;;;;;;;459.27;424.47;;;;;;;16.75;100.00;101100.63;5070063;28;20674;-75
2021/05/31 02:37:04;;;;;;;373.43;346.03;;;;;;;16.71;100.00;101092.13;5071814;28;20407;-76
2021/05/31 02:39:30;;;;;;;320.37;297.03;;;;;;;16.71;100.00;101091.28;5072316;28;20243;-75
2021/05/31 02:41:55;;;;;;;382.17;354.70;;;;;;;16.70;100.00;101089.56;5053501;28;20298;-76
2021/05/31 02:44:21;;;;;;;398.80;368.70;;;;;;;16.69;100.00;101102.00;5054268;28;20145;-76
2021/05/31 02:46:46;;;;;;;372.43;342.87;;;;;;;16.67;100.00;101097.78;5054135;28;20153;-76
2021/05/31 02:49:12;;;;;;;363.37;336.73;;;;;;;16.70;100.00;101094.88;5061343;28;20770;-76
2021/05/31 02:51:38;;;;;;;374.03;347.20;;;;;;;16.72;100.00;101096.44;5073097;28;20251;-76
2021/05/31 02:54:04;;;;;;;400.37;369.97;;;;;;;16.76;100.00;101099.66;5072715;28;20246;-76
2021/05/31 02:56:30;;;;;;;500.70;459.90;;;;;;;16.72;100.00;101092.97;5073113;28;20959;-77
2021/05/31 02:58:57;;;;;;;405.00;375.57;;;;;;;16.77;100.00;101094.22;5074029;28;20395;-76
2021/05/31 03:01:23;;;;;;;449.33;415.70;;;;;;;16.80;100.00;101091.31;5066095;28;20160;-74
2021/05/31 03:03:48;;;;;;;334.97;310.57;;;;;;;16.79;100.00;101102.91;5062802;28;20395;-74
2021/05/31 03:06:14;;;;;;;449.03;416.70;;;;;;;16.76;100.00;101089.06;5063044;28;20704;-75
2021/05/31 03:08:39;;;;;;;502.03;464.27;;;;;;;16.77;100.00;101085.41;5073204;28;20161;-75
2021/05/31 03:11:05;;;;;;;295.20;273.03;;;;;;;16.81;100.00;101084.19;5056741;28;20161;-74
2021/05/31 03:13:30;;;;;;;409.03;372.33;;;;;;;16.86;100.00;101089.94;5053422;28;20710;-75
2021/05/31 03:15:56;;;;;;;319.20;295.73;;;;;;;16.79;100.00;101080.84;5053447;28;20189;-75
2021/05/31 03:18:21;;;;;;;377.67;349.60;;;;;;;16.86;100.00;101077.50;5055462;28;20235;-75
2021/05/31 03:20:47;;;;;;;295.43;273.27;;;;;;;16.95;100.00;101075.03;5072975;28;20168;-74
2021/05/31 03:23:13;;;;;;;253.97;235.37;;;;;;;16.97;100.00;101071.25;5073048;28;20164;-76
2021/05/31 03:25:39;;;;;;;284.23;263.13;;;;;;;16.93;100.00;101072.50;5073160;28;20292;-76
2021/05/31 03:28:05;;;;;;;319.27;297.00;;;;;;;16.95;100.00;101064.41;5073238;28;20194;-74
2021/05/31 03:30:31;;;;;;;227.70;210.10;;;;;;;16.92;100.00;101060.19;5072032;28;20462;-73
2021/05/31 03:32:59;;;;;;;232.97;215.37;;;;;;;16.91;100.00;101062.00;5072183;28;20998;-75
2021/05/31 03:35:26;;;;;;;233.90;216.60;;;;;;;17.01;100.00;101058.56;5072998;28;20187;-78
2021/05/31 03:37:51;;;;;;;493.87;447.90;;;;;;;17.04;100.00;101058.28;5071550;28;20391;-74
2021/05/31 03:40:22;;;;;;;300.63;278.40;;;;;;;16.97;100.00;101049.16;5059600;28;20516;-76
2021/05/31 03:42:55;;;;;;;208.87;192.30;;;;;;;16.98;100.00;101056.16;5066552;28;20182;-76
2021/05/31 03:45:21;;;;;;;182.80;168.03;;;;;;;17.02;100.00;101050.44;5067526;28;20399;-76
2021/05/31 03:47:48;;;;;;;242.00;224.73;;;;;;;16.97;100.00;101049.16;5071917;28;20387;-77
2021/05/31 03:50:14;;;;;;;212.57;196.33;;;;;;;16.99;100.00;101040.09;5072258;28;20391;-76
2021/05/31 03:52:40;;;;;;;214.53;197.67;;;;;;;17.02;100.00;101039.00;5056936;28;20408;-76
2021/05/31 03:55:08;;;;;;;309.43;286.57;;;;;;;17.06;100.00;101043.03;5072612;28;20407;-76
2021/05/31 03:57:35;;;;;;;328.73;305.03;;;;;;;17.03;100.00;101045.97;5068459;28;20784;-75
2021/05/31 04:00:01;;;;;;;260.13;240.50;;;;;;;17.04;100.00;101040.53;5069013;28;20403;-75
2021/05/31 04:02:26;;;;;;;289.90;269.47;;;;;;;17.09;100.00;101050.75;5071797;28;20426;-76
2021/05/31 04:04:53;;;;;;;282.33;262.30;;;;;;;17.08;100.00;101047.25;5072060;28;20176;-77
2021/05/31 04:13:07;;;;;;;217.70;200.60;;;;;;;16.90;100.00;101048.88;5028634;28;20550;-75
2021/05/31 04:15:32;;;;;;;270.43;250.50;;;;;;;16.94;100.00;101055.59;5061315;28;20546;-77
2021/05/31 04:17:58;;;;;;;296.50;275.03;;;;;;;16.87;100.00;101055.28;5070670;28;20164;-77
2021/05/31 04:20:23;;;;;;;209.23;193.23;;;;;;;16.93;100.00;101053.94;5070422;28;20556;-77
2021/05/31 04:22:49;;;;;;;228.10;210.80;;;;;;;16.97;100.00;101057.13;5071291;28;20188;-76
2021/05/31 04:25:15;;;;;;;270.97;250.23;;;;;;;16.95;100.00;101057.28;5070272;28;20203;-77
2021/05/31 04:27:41;;;;;;;269.43;249.63;;;;;;;16.94;100.00;101063.56;5070555;28;20180;-76
2021/05/31 04:30:07;;;;;;;354.23;329.47;;;;;;;16.99;100.00;101057.81;5069824;28;20403;-75
2021/05/31 04:32:33;;;;;;;349.63;324.83;;;;;;;16.97;100.00;101059.78;5051057;28;20897;-77
2021/05/31 04:34:59;;;;;;;309.93;287.70;;;;;;;16.97;100.00;101049.16;5051381;28;20388;-78
2021/05/31 04:37:26;;;;;;;276.33;255.77;;;;;;;16.94;100.00;101050.28;5050594;28;20582;-75
2021/05/31 04:39:52;;;;;;;325.20;300.20;;;;;;;16.93;100.00;101056.59;5051051;28;20697;-78
2021/05/31 04:42:18;;;;;;;270.40;251.40;;;;;;;16.88;100.00;101053.47;5051095;28;20434;-77
2021/05/31 04:44:43;;;;;;;213.77;197.40;;;;;;;16.90;100.00;101052.34;5051265;28;20490;-74
2021/05/31 04:47:09;;;;;;;331.63;306.90;;;;;;;16.88;100.00;101056.13;5069948;28;20179;-73
2021/05/31 04:49:35;;;;;;;324.63;299.30;;;;;;;16.84;100.00;101052.91;5070496;28;20173;-76
2021/05/31 04:52:01;;;;;;;352.30;326.73;;;;;;;16.86;100.00;101043.00;5070903;28;20237;-76
2021/05/31 04:54:28;;;;;;;295.73;274.70;;;;;;;16.74;100.00;101054.69;5070458;28;20518;-77
2021/05/31 04:56:53;;;;;;;193.57;178.13;;;;;;;16.77;100.00;101051.75;5070914;28;20394;-76
2021/05/31 04:59:20;;;;;;;302.63;281.37;;;;;;;16.79;100.00;101060.44;5070545;28;20428;-77
2021/05/31 05:01:45;;;;;;;221.17;204.27;;;;;;;16.74;100.00;101067.13;5070380;28;20944;-78
2021/05/31 05:04:11;;;;;;;275.90;256.03;;;;;;;16.79;100.00;101060.44;5070238;28;20395;-75
2021/05/31 05:06:36;;;;;;;333.70;307.23;;;;;;;16.79;100.00;101071.06;5055715;28;20235;-76
2021/05/31 05:09:02;;;;;;;246.13;227.87;;;;;;;16.71;100.00;101070.06;5063271;28;20516;-76
2021/05/31 05:11:27;;;;;;;217.63;201.23;;;;;;;16.73;100.00;101063.63;5070383;28;20179;-77
2021/05/31 05:13:53;;;;;;;314.07;288.07;;;;;;;16.73;100.00;101068.94;5069910;28;20238;-76
2021/05/31 05:16:20;;;;;;;387.57;354.57;;;;;;;16.57;100.00;101074.72;5069650;28;20160;-78
2021/05/31 05:18:48;;;;;;;394.73;367.10;;;;;;;16.53;100.00;101075.09;5069561;28;20321;-78
2021/05/31 05:21:16;;;;;;;367.53;339.07;;;;;;;16.64;100.00;101080.31;5070438;28;20399;-76
2021/05/31 05:23:42;;;;;;;410.43;380.07;;;;;;;16.70;100.00;101084.28;5070203;28;20387;-77
2021/05/31 05:26:07;;;;;;;250.77;232.47;;;;;;;16.70;100.00;101077.19;5069177;28;20487;-79
2021/05/31 05:28:33;;;;;;;292.77;271.53;;;;;;;16.74;100.00;101086.53;5071255;28;20394;-78
2021/05/31 05:31:03;;;;;;;346.10;321.07;;;;;;;16.81;100.00;101076.22;5070868;28;20627;-79
2021/05/31 05:33:31;;;;;;;356.67;330.07;;;;;;;16.80;100.00;101078.03;5070760;28;20291;-78
2021/05/31 05:36:02;;;;;;;223.63;206.73;;;;;;;16.75;100.00;101082.06;5070578;28;20386;-79
2021/05/31 05:41:18;;;;;;;351.40;327.23;;;;;;;16.95;100.00;101089.13;5070864;28;20438;-79
2021/05/31 05:46:32;;;;;;;266.33;247.37;;;;;;;16.86;100.00;101089.94;5070671;28;20387;-78
2021/05/31 05:48:58;;;;;;;368.43;342.80;;;;;;;16.81;100.00;101093.00;5070456;28;20391;-79
2021/05/31 05:51:24;;;;;;;217.00;200.67;;;;;;;16.72;100.00;101088.50;5070797;28;20405;-80
2021/05/31 05:53:50;;;;;;;327.97;302.77;;;;;;;16.72;100.00;101077.03;5070855;28;20196;-77
2021/05/31 05:56:21;;;;;;;397.37;363.33;;;;;;;16.60;100.00;101092.16;5071038;28;20160;-79
2021/05/31 05:58:50;;;;;;;398.07;365.53;;;;;;;16.59;100.00;101078.06;5070601;28;20394;-79
2021/05/31 06:01:15;;;;;;;303.93;282.50;;;;;;;16.56;100.00;101085.47;5070433;28;20391;-79
2021/05/31 06:03:42;;;;;;;451.43;417.83;;;;;;;16.58;100.00;101089.66;5070046;28;20401;-80
2021/05/31 06:06:08;;;;;;;435.43;403.60;;;;;;;16.50;100.00;101083.31;5071772;28;20156;-78
2021/05/31 06:08:36;;;;;;;490.63;455.00;;;;;;;16.50;100.00;101078.03;5070693;28;20772;-80
2021/05/31 06:11:03;;;;;;;339.50;314.07;;;;;;;16.53;100.00;101083.06;5069297;28;20243;-79
2021/05/31 06:13:29;;;;;;;380.60;353.37;;;;;;;16.44;100.00;101081.19;5074143;28;20438;-79
2021/05/31 06:15:59;;;;;;;390.83;360.00;;;;;;;16.50;100.00;101083.31;5074230;28;20422;-79
2021/05/31 06:18:25;;;;;;;370.83;342.23;;;;;;;16.41;100.00;101084.97;5074233;28;20948;-81
2021/05/31 06:20:50;;;;;;;495.43;458.10;;;;;;;16.46;100.00;101071.28;5073907;28;20397;-79
2021/05/31 06:23:16;;;;;;;510.73;473.20;;;;;;;16.47;100.00;101080.91;5074149;28;20164;-75
2021/05/31 06:25:41;;;;;;;301.43;280.57;;;;;;;16.42;100.00;101078.69;5074474;28;20171;-74
2021/05/31 06:28:07;;;;;;;509.40;470.17;;;;;;;16.41;100.00;101095.56;5074368;28;20574;-74
2021/05/31 06:30:35;;;;;;;468.13;430.83;;;;;;;16.40;100.00;101093.03;5074539;28;20169;-72
2021/05/31 06:33:01;;;;;;;525.27;485.17;;;;;;;16.41;100.00;101081.47;5074169;28;20800;-76
2021/05/31 06:35:27;;;;;;;450.93;417.23;;;;;;;16.40;100.00;101083.28;5073399;28;20916;-77
2021/05/31 06:37:53;;;;;;;448.27;418.40;;;;;;;16.43;100.00;101090.13;5073809;28;20152;-74
2021/05/31 06:40:19;;;;;;;425.27;393.87;;;;;;;16.45;100.00;101088.19;5073761;28;20449;-74
2021/05/31 06:42:46;;;;;;;434.60;403.63;;;;;;;16.51;100.00;101090.31;5073820;28;20164;-75
2021/05/31 06:45:23;;;;;;;370.20;345.50;;;;;;;16.41;100.00;101084.13;5074070;28;20601;-75
2021/05/31 06:47:49;;;;;;;538.27;489.17;;;;;;;16.25;100.00;101089.91;5073942;28;20441;-74
2021/05/31 06:50:15;;;;;;;557.40;509.13;;;;;;;16.13;100.00;101083.81;5073577;28;20426;-74
2021/05/31 06:52:41;;;;;;;447.07;415.00;;;;;;;16.03;100.00;101090.88;5073374;28;20414;-75
2021/05/31 06:55:08;;;;;;;421.20;391.50;;;;;;;16.06;100.00;101086.13;5073262;28;20387;-76
2021/05/31 06:57:34;;;;;;;474.00;440.17;;;;;;;16.18;100.00;101089.56;5073297;28;20192;-74
2021/05/31 07:00:00;;;;;;;441.30;410.90;;;;;;;16.31;100.00;101090.19;5073514;28;20905;-73
2021/05/31 07:02:26;;;;;;;368.33;344.40;;;;;;;16.46;100.00;101088.03;5072977;28;20405;-74
2021/05/31 07:04:52;;;;;;;488.20;452.87;;;;;;;16.48;100.00;101091.44;5072977;28;20533;-74
2021/05/31 07:07:22;;;;;;;539.77;500.77;;;;;;;16.52;100.00;101082.22;5073174;28;20896;-72
2021/05/31 07:09:48;;;;;;;494.63;459.40;;;;;;;16.57;100.00;101076.53;5073303;28;20156;-75
2021/05/31 07:12:17;;;;;;;446.40;413.63;;;;;;;16.59;100.00;101071.91;5073056;28;20388;-80
2021/05/31 07:14:45;;;;;;;362.90;337.53;;;;;;;16.56;100.00;101073.03;5073737;28;20542;-76
2021/05/31 07:17:15;;;;;;;459.77;425.73;;;;;;;16.73;100.00;101076.91;5073551;28;20383;-81
2021/05/31 07:19:44;;;;;;;535.90;493.37;;;;;;;16.73;100.00;101065.44;5073534;28;20383;-83
2021/05/31 07:22:14;;;;;;;349.13;324.87;;;;;;;16.73;100.00;101066.28;5073016;28;20482;-77
2021/05/31 07:24:39;;;;;;;470.13;435.60;;;;;;;16.78;100.00;101056.13;5072886;28;20452;-77
2021/05/31 07:27:05;;;;;;;350.23;324.33;;;;;;;16.76;100.00;101068.66;5073414;28;20426;-75
2021/05/31 07:29:31;;;;;;;333.30;308.93;;;;;;;16.77;100.00;101059.72;5073245;28;20927;-74
2021/05/31 07:31:56;;;;;;;406.43;377.03;;;;;;;16.87;100.00;101065.91;5070951;28;20274;-76
2021/05/31 07:34:22;;;;;;;469.53;433.27;;;;;;;16.87;100.00;101067.72;5072659;28;20688;-74
2021/05/31 07:36:47;;;;;;;351.87;326.77;;;;;;;16.90;100.00;101068.28;5072834;28;20172;-74
2021/05/31 07:39:13;;;;;;;269.33;250.43;;;;;;;17.05;100.00;101062.59;5072752;28;20176;-76
2021/05/31 07:41:39;;;;;;;259.33;239.70;;;;;;;17.16;100.00;101062.50;5071840;28;20222;-74
2021/05/31 07:44:05;;;;;;;448.53;413.93;;;;;;;17.26;100.00;101065.16;5072764;28;20160;-75
2021/05/31 07:46:30;;;;;;;427.27;393.83;;;;;;;17.29;100.00;101065.72;5073278;28;20199;-74
2021/05/31 07:48:56;;;;;;;334.17;311.13;;;;;;;17.33;100.00;101076.91;5072560;28;20164;-74
2021/05/31 07:51:22;;;;;;;219.53;202.53;;;;;;;17.39;100.00;101073.72;5072374;28;20557;-75
2021/05/31 07:53:53;;;;;;;366.47;339.37;;;;;;;17.31;100.00;101074.41;5072243;28;20185;-75
2021/05/31 07:56:22;;;;;;;289.07;267.27;;;;;;;17.27;100.00;101083.63;5071930;28;20422;-76
2021/05/31 07:58:48;;;;;;;192.40;177.37;;;;;;;17.25;100.00;101079.41;5072187;28;20804;-75
2021/05/31 08:01:13;;;;;;;264.47;244.40;;;;;;;17.23;100.00;101082.22;5072158;28;20434;-77
2021/05/31 08:03:41;;;;;;;435.70;398.97;;;;;;;17.20;100.00;101080.66;5072235;28;20907;-76
2021/05/31 08:06:11;;;;;;;311.43;288.80;;;;;;;17.27;100.00;101078.28;5072615;28;20174;-77
2021/05/31 08:08:39;;;;;;;197.43;181.77;;;;;;;17.30;100.00;101066.56;5071046;28;20444;-75
2021/05/31 08:11:07;;;;;;;650.60;574.53;;;;;;;17.37;100.00;101068.50;5071843;28;20417;-74
2021/05/31 08:13:33;;;;;;;317.20;293.27;;;;;;;17.29;100.00;101063.06;5072065;28;20978;-76
2021/05/31 08:15:59;;;;;;;338.30;312.07;;;;;;;17.43;100.00;101067.97;5071899;28;20445;-75
2021/05/31 08:18:25;;;;;;;379.07;350.53;;;;;;;17.46;100.00;101080.16;5072152;28;20157;-75
2021/05/31 08:20:50;;;;;;;288.60;267.40;;;;;;;17.51;100.00;101075.25;5071625;28;20165;-74
2021/05/31 08:23:16;;;;;;;256.60;237.90;;;;;;;17.34;100.00;101078.59;5071600;28;20179;-74
2021/05/31 08:25:43;;;;;;;339.80;312.03;;;;;;;17.21;100.00;101086.81;5071674;28;20160;-75
2021/05/31 08:28:09;;;;;;;382.90;354.80;;;;;;;17.07;100.00;101071.25;5071968;28;20176;-74
2021/05/31 08:30:35;;;;;;;265.20;246.07;;;;;;;17.08;100.00;101080.94;5071629;28;20423;-75
2021/05/31 08:33:04;;;;;;;416.40;381.93;;;;;;;17.09;100.00;101082.59;5071659;28;20164;-72
2021/05/31 08:35:31;;;;;;;288.93;267.93;;;;;;;17.06;100.00;101082.88;5071381;28;20881;-75
2021/05/31 08:37:57;;;;;;;289.90;268.33;;;;;;;17.08;100.00;101095.03;5071767;28;20387;-74
2021/05/31 08:40:23;;;;;;;463.07;422.30;;;;;;;17.02;100.00;101092.94;5071614;28;20520;-76
2021/05/31 08:42:48;;;;;;;269.50;248.50;;;;;;;17.07;100.00;101087.19;5071095;28;20244;-75
2021/05/31 08:45:18;;;;;;;328.00;304.63;;;;;;;17.15;100.00;101084.69;5070899;28;20403;-74
2021/05/31 08:47:45;;;;;;;272.07;252.47;;;;;;;17.08;100.00;101087.06;5071324;28;20646;-75
2021/05/31 08:50:14;;;;;;;354.07;326.93;;;;;;;17.09;100.00;101096.72;5071391;28;20399;-76
2021/05/31 08:52:40;;;;;;;371.37;342.73;;;;;;;17.07;100.00;101092.50;5071401;28;20798;-73
2021/05/31 08:55:11;;;;;;;337.13;306.70;;;;;;;17.12;100.00;101087.63;5071184;28;21035;-74
2021/05/31 08:57:36;;;;;;;374.37;346.90;;;;;;;17.09;100.00;101079.94;5071238;28;20399;-75
2021/05/31 09:00:09;;;;;;;431.20;400.13;;;;;;;17.10;100.00;101094.91;5071329;28;20447;-77
2021/05/31 09:02:36;;;;;;;380.10;352.10;;;;;;;17.00;100.00;101086.88;5070640;28;20639;-76
2021/05/31 09:05:03;;;;;;;238.20;221.17;;;;;;;17.05;100.00;101084.69;5070975;28;20405;-74
2021/05/31 09:07:28;;;;;;;423.40;393.33;;;;;;;17.20;100.00;101083.31;5070770;28;20433;-75
2021/05/31 09:09:55;;;;;;;323.00;299.77;;;;;;;17.14;100.00;101077.72;5070470;28;20448;-75
2021/05/31 09:12:23;;;;;;;236.53;219.27;;;;;;;17.10;100.00;101079.81;5070679;28;20164;-75
2021/05/31 09:15:00;;;;;;;247.47;229.30;;;;;;;17.10;100.00;101074.50;5070871;28;20457;-76
2021/05/31 09:17:35;;;;;;;304.63;282.43;;;;;;;17.12;100.00;101075.19;5070775;28;20460;-76
2021/05/31 09:20:09;;;;;;;227.77;209.47;;;;;;;17.05;100.00;101081.19;5071069;28;20395;-75
2021/05/31 09:22:47;;;;;;;258.70;239.27;;;;;;;17.07;100.00;101084.53;5069543;28;20426;-75
2021/05/31 09:25:35;;;;;;;518.33;478.07;;;;;;;16.98;100.00;101082.69;5070605;28;20403;-74
2021/05/31 09:28:11;;;;;;;330.10;307.27;;;;;;;17.03;100.00;101073.38;5070447;28;20457;-73
2021/05/31 09:30:38;;;;;;;343.50;319.37;;;;;;;17.02;100.00;101089.44;5067679;28;20415;-75
2021/05/31 09:33:09;;;;;;;266.77;247.80;;;;;;;16.91;100.00;101083.22;5049965;28;20449;-75
2021/05/31 09:35:38;;;;;;;390.43;362.83;;;;;;;16.90;100.00;101089.53;5049513;28;20408;-75
2021/05/31 09:38:03;;;;;;;369.20;343.03;;;;;;;16.98;100.00;101091.50;5050111;28;20479;-76
2021/05/31 09:40:29;;;;;;;289.77;269.53;;;;;;;16.97;100.00;101084.53;5050623;28;21004;-72
2021/05/31 09:42:57;;;;;;;274.30;254.83;;;;;;;17.10;100.00;101081.63;5069180;28;20191;-73
2021/05/31 09:45:24;;;;;;;246.67;227.73;;;;;;;17.05;100.00;101089.16;5068392;28;20846;-74
2021/05/31 09:47:50;;;;;;;294.20;272.30;;;;;;;17.25;100.00;101080.25;5074405;28;20805;-73
2021/05/31 09:50:24;;;;;;;225.13;208.20;;;;;;;17.36;100.00;101082.78;5054455;28;20917;-73
2021/05/31 09:53:04;;;;;;;227.20;209.93;;;;;;;17.39;100.00;101085.19;5069461;28;20405;-73
2021/05/31 09:55:35;;;;;;;273.77;253.43;;;;;;;17.26;100.00;101081.94;5074727;28;20406;-74
2021/05/31 09:58:05;;;;;;;257.03;238.60;;;;;;;17.34;100.00;101078.59;5071468;28;20476;-72
2021/05/31 10:00:32;;;;;;;371.33;344.03;;;;;;;17.36;100.00;101079.28;5074123;28;20399;-76
2021/05/31 10:03:13;;;;;;;210.83;195.00;;;;;;;17.30;100.00;101083.31;5065531;28;20810;-74
2021/05/31 10:06:17;;;;;;;220.00;203.57;;;;;;;17.38;100.00;101078.19;5054358;28;20407;-73
2021/05/31 10:11:01;;;;;;;226.57;208.53;;;;;;;17.36;100.00;101080.13;5073620;28;20481;-73
2021/05/31 10:13:29;;;;;;;260.47;240.20;;;;;;;17.25;100.00;101077.59;5073270;28;20480;-72
2021/05/31 10:15:55;;;;;;;221.67;203.53;;;;;;;17.14;100.00;101072.41;5062829;28;20456;-72
2021/05/31 10:18:21;;;;;;;230.93;213.07;;;;;;;16.97;100.00;101070.41;5073296;28;20773;-73
2021/05/31 10:20:47;;;;;;;263.63;243.40;;;;;;;17.04;100.00;101083.00;5060623;28;20892;-73
2021/05/31 10:23:14;;;;;;;291.80;270.80;;;;;;;17.08;100.00;101075.63;5053846;28;20240;-74
2021/05/31 10:25:46;;;;;;;212.97;196.77;;;;;;;17.09;100.00;101074.63;5053385;28;20432;-71
2021/05/31 10:28:21;;;;;;;284.80;263.40;;;;;;;17.14;100.00;101078.53;5064108;28;20422;-73
2021/05/31 10:30:51;;;;;;;357.90;331.93;;;;;;;17.05;100.00;101074.06;5064194;28;20472;-76
2021/05/31 10:33:22;;;;;;;373.63;346.30;;;;;;;16.86;100.00;101079.34;5053525;28;20808;-75
2021/05/31 10:35:48;;;;;;;330.20;306.17;;;;;;;16.81;100.00;101076.22;5067017;28;20877;-76
2021/05/31 10:38:15;;;;;;;227.43;210.27;;;;;;;16.83;100.00;101083.06;5072354;28;20432;-73
2021/05/31 10:40:46;;;;;;;241.80;224.03;;;;;;;16.88;100.00;101080.88;5064711;28;20848;-73
2021/05/31 10:43:15;;;;;;;218.83;201.03;;;;;;;16.95;100.00;101085.63;5053775;28;20447;-74
2021/05/31 10:45:42;;;;;;;449.03;409.30;;;;;;;16.82;100.00;101083.22;5066553;28;20410;-76
2021/05/31 10:48:12;;;;;;;251.40;233.90;;;;;;;16.64;100.00;101082.97;5073436;28;20399;-75
2021/05/31 10:50:39;;;;;;;221.83;205.47;;;;;;;16.50;100.00;101084.16;5057676;28;20736;-75
2021/05/31 10:53:32;;;;;;;289.13;268.77;;;;;;;16.45;100.00;101094.31;5063181;28;20392;-75
2021/05/31 10:56:03;;;;;;;357.73;333.13;;;;;;;16.33;100.00;101085.63;5053172;28;20430;-74
2021/05/31 10:58:47;;;;;;;447.87;413.27;;;;;;;16.18;100.00;101088.75;5067902;28;20457;-73
2021/05/31 11:01:19;;;;;;;422.63;393.07;;;;;;;15.98;100.00;101091.25;5069129;28;20797;-74
2021/05/31 11:04:07;;;;;;;352.40;328.53;;;;;;;15.91;100.00;101092.72;5073387;28;20457;-75